Elliot Chaparral Reserve, California Weather observations

Data are for 10 minute period ending at time listed.
 Day   Time   Solar   Ave.   Ave.  Ave.  Vector  Max.   Baro.   Total    
  of    of     Rad.   Air    Rel.  Wind   Wind   Wind  Press.  Precip.   
Year   Day            Temp.  Hum.  Speed  Dir.   Gust                    
2014   (PST)  Kw/m2    F      %     mph   deg.    mph    mb.     in.     
-------------------------------------------------------------------------
 328   22:20   0.00   66.1    12   18.1    47    24.0   995.8    0.00 
 328   22:30   0.00   67.1    11   13.6    59    22.1   996.1    0.00 
 328   22:40   0.00   67.5    10    8.6    54    18.6   996.3    0.00 
 328   22:50   0.00   67.2    10    7.7    84    12.9   996.4    0.00 
 328   23:00   0.00   65.6    11    6.6    79    11.3   996.4    0.00 
 328   23:10   0.00   65.2    11    9.5    56    15.1   996.4    0.00 
 328   23:20   0.00   66.2    11   11.8    50    17.2   996.4    0.00 
 328   23:30   0.00   66.5    10   14.1    51    20.1   996.3    0.00 
 328   23:40   0.00   67.1    10   15.4    54    20.4   996.3    0.00 
 328   23:50   0.00   67.0    10   14.7    46    17.5   996.4    0.00 
 329    0:00   0.00   66.8    10   14.7    48    19.8   996.5    0.00 
 329    0:10   0.00   66.8    10   14.2    47    18.1   996.5    0.00 
 329    0:20   0.00   66.9    10   14.0    57    24.4   996.6    0.00 
 329    0:30   0.00   66.0    10    9.7    64    13.4   996.7    0.00 
 329    0:40   0.00   65.6    10   11.1    57    14.8   996.7    0.00 
 329    0:50   0.00   65.1    11   12.4    66    18.9   996.8    0.00 
 329    1:00   0.00   65.8    10   16.0    56    20.7   996.7    0.00 
 329    1:10   0.00   66.3    10   16.3    47    24.1   996.7    0.00 
 329    1:20   0.00   66.0    10   16.1    45    20.5   996.8    0.00 
 329    1:30   0.00   65.8    10    8.3    43    14.5   996.9    0.00 
 329    1:40   0.00   64.8    11    7.8    57    11.5   996.9    0.00 
 329    1:50   0.00   64.5    11    7.5    44    10.7   996.9    0.00 
 329    2:00   0.00   64.9    11    9.8    35    13.9   996.7    0.00 
 329    2:10   0.00   64.6    11    9.0    26    11.2   996.7    0.00 
 329    2:20   0.00   64.5    11    7.1    20    10.5   996.7    0.00 
 329    2:30   0.00   63.8    11    5.9    37    10.3   996.7    0.00 
 329    2:40   0.00   63.5    11    6.3    46    10.2   996.7    0.00 
 329    2:50   0.00   62.0    12    3.4    89     4.6   996.7    0.00 
 329    3:00   0.00   62.7    11    4.0    57     5.0   996.6    0.00 
 329    3:10   0.00   63.6    11    2.4   114     4.9   996.6    0.00 
 329    3:20   0.00   61.2    12    4.2   144     5.4   996.7    0.00 
 329    3:30   0.00   61.5    12    2.1   145     3.4   996.7    0.00 
 329    3:40   0.00   61.8    12    3.6   202     6.0   996.6    0.00 
 329    3:50   0.00   60.6    12    3.7   196     5.7   996.6    0.00 
 329    4:00   0.00   60.2    12    3.5   216     5.0   996.7    0.00 
 329    4:10   0.00   60.8    12    3.4   196     5.3   996.7    0.00 
 329    4:20   0.00   61.1    12    1.6   172     3.2   996.7    0.00 
 329    4:30   0.00   61.3    12    1.2   136     2.6   996.8    0.00 
 329    4:40   0.00   61.6    12    2.5   242     4.7   996.9    0.00 
 329    4:50   0.00   62.9    12    4.3   278     5.9   996.9    0.00 
 329    5:00   0.00   62.7    12    2.7   309     4.2   997.1    0.00 
 329    5:10   0.00   61.8    12    3.3    18     5.1   997.2    0.00 
 329    5:20   0.00   63.0    11    3.8    18     5.5   997.3    0.00 
 329    5:30   0.00   63.7    11    3.6    28     5.6   997.4    0.00 
 329    5:40   0.00   64.0    11    2.7    38     3.9   997.5    0.00 
 329    5:50   0.00   64.8    10    2.6     8     4.2   997.6    0.00 
 329    6:00   0.00   64.9    10    3.4   355     5.1   997.7    0.00 
 329    6:10   0.00   63.5    11    5.8     8     6.5   997.8    0.00 
 329    6:20   0.00   63.2    11    7.3     8     8.2   997.8    0.00 
 329    6:30   0.00   63.2    11    7.1     4     8.0   998.0    0.00 
 329    6:40   0.00   63.2    11    5.7   345     7.4   998.1    0.00 
 329    6:50   0.03   63.9    10    3.8   337     4.5   998.1    0.00 
 329    7:00   0.06   65.5    10    3.5   350     4.8   998.1    0.00 
 329    7:10   0.09   66.1    10    4.6    17     6.1   998.1    0.00 
 329    7:20   0.12   65.7    10    6.8    23     8.6   998.2    0.00 
 329    7:30   0.14   66.3    10    6.9    25     8.6   998.3    0.00 
 329    7:40   0.18   67.1     9    8.4    18    10.2   998.5    0.00 
 329    7:50   0.21   67.1    10    8.6    20    10.2   998.6    0.00 
 329    8:00   0.24   67.2    10    8.0    27     9.3   998.7    0.00 
 329    8:10   0.28   68.5    10    6.0    38     8.5   998.7    0.00 
 329    8:20   0.31   70.1     9    5.8    50     8.3   998.9    0.00 
 329    8:30   0.34   70.1    10    6.1    36     8.0   998.9    0.00 
 329    8:40   0.37   69.9    10    5.0    39     7.7   998.9    0.00 
 329    8:50   0.40   70.8     9    6.1    43     8.9   998.9    0.00 
 329    9:00   0.42   71.3     9    5.7    27     8.5   998.9    0.00 
 329    9:10   0.45   71.9     9    4.7    16     8.3   998.9    0.00 
 329    9:20   0.47   72.3     9    4.8     7     7.4   998.8    0.00 
 329    9:30   0.50   72.9     9    4.5     6     6.6   998.8    0.00 
 329    9:40   0.52   73.3     8    3.7   358     6.2   998.8    0.00 
 329    9:50   0.54   73.7     8    4.1   321     6.5   998.8    0.00 
 329   10:00   0.56   73.9     8    6.8   308     9.1   998.7    0.00 
 329   10:10   0.57   73.8     8    6.6   303     9.3   998.6    0.00 
 329   10:20   0.59   74.4     7    7.4   309     9.9   998.5    0.00 
 329   10:30   0.60   74.7     7    6.0   307     9.4   998.4    0.00 
 329   10:40   0.61   75.0     7    5.0   311     8.1   998.1    0.00 
 329   10:50   0.62   75.3     8    5.3   306     8.6   997.9    0.00 
 329   11:00   0.63   76.2     8    4.7   306     7.8   997.7    0.00 
 329   11:10   0.64   76.4     8    7.3   280    12.0   997.6    0.00 
 329   11:20   0.62   76.0     8    8.5   291    12.3   997.3    0.00 
 329   11:30   0.63   75.8     9    9.3   270    13.2   997.2    0.00 
 329   11:40   0.64   75.6     9    9.6   277    12.8   996.9    0.00 
 329   11:50   0.64   75.7     9    8.5   278    13.1   996.7    0.00 
 329   12:00   0.64   76.1     8    9.1   297    14.0   996.6    0.00 
 329   12:10   0.63   75.6     8   10.8   288    14.4   996.5    0.00 
 329   12:20   0.63   76.2     8    7.8   282    13.7   996.4    0.00 
 329   12:30   0.61   75.6     9    8.8   297    13.1   996.2    0.00 
 329   12:40   0.60   75.7    10    7.6   301    12.3   996.0    0.00 
 329   12:50   0.59   75.3    10    8.4   303    13.2   995.9    0.00 
 329   13:00   0.58   75.5    10    8.5   316    13.4   995.8    0.00 
 329   13:10   0.56   75.6    10    8.9   312    11.7   995.6    0.00 
 329   13:20   0.55   75.8    10    8.4   322    13.6   995.4    0.00 
 329   13:30   0.53   76.1    10    8.8   306    12.7   995.3    0.00 
 329   13:40   0.51   76.1    11   10.2   322    13.8   995.2    0.00 
 329   13:50   0.48   76.3    10   10.4   320    13.8   995.1    0.00 
 329   14:00   0.46   75.7     9   12.0   314    16.1   995.0    0.00 
 329   14:10   0.44   75.5     9   10.9   317    15.4   995.0    0.00 
 329   14:20   0.41   74.6    10   11.2   312    15.1   994.9    0.00 
 329   14:30   0.38   75.0    11   11.0   321    15.7   994.9    0.00 
 329   14:40   0.35   74.1    14   12.0   329    15.5   995.0    0.00 
 329   14:50   0.32   74.2    18   10.8   329    14.2   995.1    0.00 
 329   15:00   0.29   74.1    15    9.0   324    13.6   995.1    0.00 
 329   15:10   0.26   74.2    14    9.4   305    11.6   995.1    0.00 
 329   15:20   0.23   74.1    12    8.8   317    12.5   995.1    0.00 
 329   15:30   0.20   73.9    12    9.2   329    12.2   995.1    0.00 
 329   15:40   0.17   73.6    12    9.0   330    13.7   995.1    0.00 
 329   15:50   0.14   73.0    12    8.8   333    12.2   995.1    0.00 
 329   16:00   0.11   72.8    12    8.2   322    10.9   995.1    0.00 
 329   16:10   0.08   72.2    12    8.4   310    12.2   995.2    0.00 
 329   16:20   0.05   71.0    11    9.4   318    14.0   995.2    0.00 
 329   16:30   0.02   70.2    12    9.3   319    13.6   995.4    0.00 
 329   16:40   0.01   69.1    12    7.7   317    13.4   995.4    0.00 
 329   16:50   0.00   67.8    12    5.9   325     9.5   995.5    0.00 
 329   17:00   0.00   66.5    13    7.0   331     9.6   995.6    0.00 
 329   17:10   0.00   65.7    15    7.0   334     9.9   995.6    0.00 
 329   17:20   0.00   65.1    17    6.8   337     8.4   995.6    0.00 
 329   17:30   0.00   64.6    19    7.7   344     9.1   995.7    0.00 
 329   17:40   0.00   65.1    20    8.9   353    11.5   995.8    0.00 
 329   17:50   0.00   65.1    20    8.3   358    11.8   995.8    0.00 
 329   18:00   0.00   65.0    19    9.3   355    11.8   995.8    0.00 
 329   18:10   0.00   64.8    18    8.7     1    12.4   995.9    0.00 
 329   18:20   0.00   65.1    16    8.0     4    11.3   996.0    0.00 
 329   18:30   0.00   65.3    15    8.3     6    11.2   996.0    0.00 
 329   18:40   0.00   65.4    14    7.4     9     9.6   996.0    0.00 
 329   18:50   0.00   66.0    12    8.8    10    11.6   996.0    0.00 
 329   19:00   0.00   66.3    12    7.7    18    11.3   996.0    0.00 
 329   19:10   0.00   66.1    12    7.0    28     9.1   996.2    0.00 
 329   19:20   0.00   65.9    12    6.4    30    10.2   996.2    0.00 
 329   19:30   0.00   66.1    12    5.2    32     8.6   996.2    0.00 
 329   19:40   0.00   66.1    12    5.9    27     8.9   996.2    0.00 
 329   19:50   0.00   66.4    12    5.2    25     7.5   996.2    0.00 
 329   20:00   0.00   66.9    11    5.4    15     8.6   996.2    0.00 
 329   20:10   0.00   66.9    11    6.2     3     9.0   996.3    0.00 
 329   20:20   0.00   67.3    11    4.7    18     5.7   996.2    0.00 
 329   20:30   0.00   66.7    12    5.2     4     6.4   996.2    0.00 
 329   20:40   0.00   66.0    12    4.5    11     5.8   996.2    0.00 
 329   20:50   0.00   66.1    12    3.0    82     4.5   996.2    0.00 
 329   21:00   0.00   66.3    12    2.8    84     4.1   996.2    0.00 
 329   21:10   0.00   64.9    14    4.7   101     7.5   996.1    0.00 
 329   21:20   0.00   62.9    16    5.9    95     8.6   996.0    0.00 
 329   21:30   0.00   63.7    16    6.4   106     8.8   996.0    0.00 
 329   21:40   0.00   63.5    17    6.6    94     9.1   996.0    0.00 
 329   21:50   0.00   62.6    18    5.6    78     8.3   996.0    0.00 
 329   22:00   0.00   61.6    20    4.9    82     7.1   996.0    0.00 
 329   22:10   0.00   62.7    19    6.3    91     8.8   996.0    0.00 

Return to Elliot Chaparral Reserve graphs page.


Western Regional Climate Center,wrcc@dri.edu